Portada
METAR-TAF:

METAR-TAF

Aeroports :

Bombai, Índia

latitud: 19-07N, longitud: 072-51E, altitud: 8 m

Observació

L'informe es va fer fa 43 minuts, a les 10:30 UTC
Vent 10 kt del Oest/Nord-Oest
Temperatura 33°C
Humitat 23%
Pressió 1009 hPa
Visibilitat: 4000 m
fum

METAR: VABB 261030Z 30010KT 4000 FU NSC 33/09 Q1009 NOSIG

Hora: 16:43 (11:13 UTC)

Pronòstic

L'informe es va fer fa 3 hores i 13 minuts, a les 08:00 UTC
Pronòstic vàlid del 26 a les 09 UTC al 26 a les 18 UTC
Vent 8 kt del Nord/Nord-Oest
Visibilitat: 5000 m
fum
Evolucionant progressivament
l' 26 a les 13 UTC al 26 a les 15 UTC
Visibilitat: 4000 m
fum
Evolucionant progressivament
l' 26 a les 16 UTC al 26 a les 18 UTC
Vent 6 kt del Nord-Est
Visibilitat: 3000 m
calitja, fum

TAF: VABB 260800Z 2609/2618 34008KT 5000 FU NSC BECMG 2613/2615 4000 FU BECMG 2616/2618 04006KT 3000 HZ FU

Observacions i pronòstics meteorològics de més de 4000 aeroports (METAR i TAF).

Les estacions disponibles són els punts grocs i vermells al mapa.

Posi el ratolí al punt desitjat per veure el nom de l'estació.

Feu clic per veure les observacions i els pronòstics meteorològics.

Per canviar el mapa: feu clic els botons verds amb una creu de color negre per apropar; al botó verd amb un guió per allunyar la imatge; o en les fletxes verdes per a mapes adjacents.


METAR-TAF: